Whitehall, NY

6:02 AM EDT on October 20, 2014 (GMT -0400)
South Bay | Change Station
CLOSE
Current Station
Personal Weather Station
Location: Whitehall, NY
Elevation: 131 ft
Nearby Weather Stations

Elev 131 ft 43.57 °N, 73.43 °W | Updated 3 seconds ago

Partly Cloudy
Partly Cloudy
34.7 °F
Feels Like 30 °F
N
5.0
Wind Variable Wind from WSW
Gusts 7.0 mph

Today
High -- | Low -- °F
--% Chance of Precip.
Yesterday
High -- | Low -- °F
Precip. -- in
7:13 AM 6:02 PM
Waning Crescent, 12% visible
Pressure 30.05 in
Visibility 10.0 miles
Clouds Clear
Windchill 30 °F
Dew Point 30 °F
Humidity 84%
Rainfall 0.00 in
Snow Depth Not available.
UV 0 out of 12
Pollen 1.30 out of 12
Ozone Good
PM2.5 Good
Flu Activity Sporadic
METAR KGFL 200953Z AUTO 00000KT 10SM CLR M02/M04 A3003 RMK AO2 SLP176 T10171039

More Conditions Fewer Conditions

Pressure 30.05 in
Visibility 10.0 miles
Clouds Clear
Windchill 30 °F
Dew Point 30 °F
Humidity 84%
Rainfall 0.00 in
Snow Depth Not available.
UV 0 out of 12
Pollen 1.30 out of 12
Ozone Good
PM2.5 Good
Flu Activity Sporadic
METAR KGFL 200953Z AUTO 00000KT 10SM CLR M02/M04 A3003 RMK AO2 SLP176 T10171039

More Conditions Fewer Conditions

10-Day Weather Forecast

Almanac

Astronomy

Oct. 20, 2014 Rise Set
Actual Time 7:13 AM EDT 6:02 PM EDT
Civil Twilight 6:44 AM EDT 6:31 PM EDT
Nautical Twilight 6:11 AM EDT 7:04 PM EDT
Astronomical Twilight 5:38 AM EDT 7:37 PM EDT
Moon 3:53 AM EDT 4:28 PM EDT
Length of Visible Light 11h 46m
Length of Day
10h 48m
Waning Crescent, 12% of the Moon is Illuminated
Today
Waning Crescent
Oct 23
New
Oct 30
First Quarter
Nov 6
Full
Nov 14
Last Quarter

Today's Extremes

State Highs State Lows

Community

WunderPhotos

Upload Photos

1,763,326 photos uploaded!

Nearby

Air Quality

  Air Quality AQ Index Pollutant
Yesterday Good
OZONE
Yesterday Good
PM2.5
Current Good
PM2.5
Current Good
OZONE
Monday Good
PM2.5

Snow Depth

Station Depth Elevation
No new snow has been reported.

Earthquake Activity

City Distance Mag. Time & Date
No recent earthquake activity has been reported nearby.
Minimum magnitude displayed is 2.5.

Coastal Water Temperatures

Place Temperature
No Stations Reporting

Nearby Weather Stations